sensor_id;sensor_type;location;lat;lon;timestamp;P1;durP1;ratioP1;P2;durP2;ratioP2
18999;SDS011;9633;50.980;13.850;2023-02-28T00:00:39;13.38;;;7.20;;
18999;SDS011;9633;50.980;13.850;2023-02-28T00:02:11;9.45;;;7.15;;
18999;SDS011;9633;50.980;13.850;2023-02-28T00:03:45;8.50;;;6.68;;
18999;SDS011;9633;50.980;13.850;2023-02-28T00:05:19;8.43;;;7.18;;
18999;SDS011;9633;50.980;13.850;2023-02-28T00:06:53;8.48;;;6.90;;
18999;SDS011;9633;50.980;13.850;2023-02-28T00:08:26;10.07;;;6.53;;
18999;SDS011;9633;50.980;13.850;2023-02-28T00:09:59;9.98;;;6.90;;
18999;SDS011;9633;50.980;13.850;2023-02-28T00:11:32;8.68;;;6.63;;
18999;SDS011;9633;50.980;13.850;2023-02-28T00:13:07;9.02;;;6.30;;
18999;SDS011;9633;50.980;13.850;2023-02-28T00:14:39;10.52;;;6.40;;
18999;SDS011;9633;50.980;13.850;2023-02-28T00:16:13;8.98;;;6.20;;
18999;SDS011;9633;50.980;13.850;2023-02-28T00:17:47;10.90;;;6.82;;
18999;SDS011;9633;50.980;13.850;2023-02-28T00:19:19;9.30;;;6.25;;
18999;SDS011;9633;50.980;13.850;2023-02-28T00:20:52;9.98;;;6.22;;
18999;SDS011;9633;50.980;13.850;2023-02-28T00:22:25;10.98;;;6.00;;
18999;SDS011;9633;50.980;13.850;2023-02-28T00:23:58;9.70;;;6.30;;
18999;SDS011;9633;50.980;13.850;2023-02-28T00:25:31;8.88;;;5.80;;
18999;SDS011;9633;50.980;13.850;2023-02-28T00:27:05;8.35;;;6.00;;
18999;SDS011;9633;50.980;13.850;2023-02-28T00:28:38;9.50;;;6.15;;
18999;SDS011;9633;50.980;13.850;2023-02-28T00:30:12;8.27;;;5.95;;
18999;SDS011;9633;50.980;13.850;2023-02-28T00:31:46;8.73;;;6.37;;
18999;SDS011;9633;50.980;13.850;2023-02-28T00:33:19;8.52;;;6.45;;
18999;SDS011;9633;50.980;13.850;2023-02-28T00:34:53;7.78;;;6.05;;
18999;SDS011;9633;50.980;13.850;2023-02-28T00:36:25;11.15;;;6.32;;
18999;SDS011;9633;50.980;13.850;2023-02-28T00:37:58;8.70;;;6.65;;
18999;SDS011;9633;50.980;13.850;2023-02-28T00:39:33;8.80;;;6.25;;
18999;SDS011;9633;50.980;13.850;2023-02-28T00:41:07;9.40;;;6.20;;
18999;SDS011;9633;50.980;13.850;2023-02-28T00:42:40;8.68;;;6.93;;
18999;SDS011;9633;50.980;13.850;2023-02-28T00:44:15;9.75;;;6.35;;
18999;SDS011;9633;50.980;13.850;2023-02-28T00:45:48;9.90;;;6.82;;
18999;SDS011;9633;50.980;13.850;2023-02-28T00:47:20;11.35;;;6.65;;
18999;SDS011;9633;50.980;13.850;2023-02-28T00:48:53;9.50;;;6.90;;
18999;SDS011;9633;50.980;13.850;2023-02-28T00:50:26;10.15;;;6.68;;
18999;SDS011;9633;50.980;13.850;2023-02-28T00:52:01;11.75;;;6.72;;
18999;SDS011;9633;50.980;13.850;2023-02-28T00:53:34;10.25;;;6.80;;
18999;SDS011;9633;50.980;13.850;2023-02-28T00:55:07;9.43;;;6.63;;
18999;SDS011;9633;50.980;13.850;2023-02-28T00:56:41;9.10;;;6.82;;
18999;SDS011;9633;50.980;13.850;2023-02-28T00:58:14;9.75;;;7.15;;
18999;SDS011;9633;50.980;13.850;2023-02-28T00:59:48;10.15;;;6.68;;
18999;SDS011;9633;50.980;13.850;2023-02-28T01:01:22;10.77;;;7.07;;
18999;SDS011;9633;50.980;13.850;2023-02-28T01:02:55;12.15;;;7.30;;
18999;SDS011;9633;50.980;13.850;2023-02-28T01:04:28;13.05;;;6.97;;
18999;SDS011;9633;50.980;13.850;2023-02-28T01:06:05;9.65;;;7.25;;
18999;SDS011;9633;50.980;13.850;2023-02-28T01:07:38;10.23;;;7.35;;
18999;SDS011;9633;50.980;13.850;2023-02-28T01:09:11;11.30;;;7.05;;
18999;SDS011;9633;50.980;13.850;2023-02-28T01:10:46;9.70;;;6.70;;
18999;SDS011;9633;50.980;13.850;2023-02-28T01:12:19;9.23;;;6.65;;
18999;SDS011;9633;50.980;13.850;2023-02-28T01:13:52;9.45;;;7.30;;
18999;SDS011;9633;50.980;13.850;2023-02-28T01:15:26;11.43;;;6.82;;
18999;SDS011;9633;50.980;13.850;2023-02-28T01:16:59;11.05;;;6.70;;
18999;SDS011;9633;50.980;13.850;2023-02-28T01:18:33;9.23;;;6.78;;
18999;SDS011;9633;50.980;13.850;2023-02-28T01:20:06;10.23;;;6.95;;
18999;SDS011;9633;50.980;13.850;2023-02-28T01:21:41;11.27;;;7.18;;
18999;SDS011;9633;50.980;13.850;2023-02-28T01:23:16;9.82;;;7.13;;
18999;SDS011;9633;50.980;13.850;2023-02-28T01:24:50;10.23;;;7.50;;
18999;SDS011;9633;50.980;13.850;2023-02-28T01:26:23;10.07;;;6.88;;
18999;SDS011;9633;50.980;13.850;2023-02-28T01:27:56;8.80;;;7.15;;
18999;SDS011;9633;50.980;13.850;2023-02-28T01:29:30;11.18;;;7.07;;
18999;SDS011;9633;50.980;13.850;2023-02-28T01:31:05;9.20;;;6.85;;
18999;SDS011;9633;50.980;13.850;2023-02-28T01:32:41;8.85;;;6.35;;
18999;SDS011;9633;50.980;13.850;2023-02-28T01:34:14;9.98;;;6.47;;
18999;SDS011;9633;50.980;13.850;2023-02-28T01:35:47;8.32;;;6.63;;
18999;SDS011;9633;50.980;13.850;2023-02-28T01:37:21;11.13;;;6.90;;
18999;SDS011;9633;50.980;13.850;2023-02-28T01:38:54;9.55;;;6.93;;
18999;SDS011;9633;50.980;13.850;2023-02-28T01:40:26;9.45;;;6.75;;
18999;SDS011;9633;50.980;13.850;2023-02-28T01:41:59;10.02;;;7.10;;
18999;SDS011;9633;50.980;13.850;2023-02-28T01:43:51;8.35;;;6.30;;
18999;SDS011;9633;50.980;13.850;2023-02-28T01:45:28;11.32;;;6.95;;
18999;SDS011;9633;50.980;13.850;2023-02-28T01:47:04;9.35;;;6.85;;
18999;SDS011;9633;50.980;13.850;2023-02-28T01:48:38;11.27;;;7.15;;
18999;SDS011;9633;50.980;13.850;2023-02-28T01:50:18;8.63;;;7.03;;
18999;SDS011;9633;50.980;13.850;2023-02-28T01:51:54;10.35;;;7.18;;
18999;SDS011;9633;50.980;13.850;2023-02-28T01:53:30;10.48;;;7.18;;
18999;SDS011;9633;50.980;13.850;2023-02-28T01:55:07;9.70;;;7.25;;
18999;SDS011;9633;50.980;13.850;2023-02-28T01:56:43;11.80;;;7.60;;
18999;SDS011;9633;50.980;13.850;2023-02-28T01:58:20;8.25;;;6.85;;
18999;SDS011;9633;50.980;13.850;2023-02-28T01:59:54;10.93;;;7.60;;
18999;SDS011;9633;50.980;13.850;2023-02-28T02:01:43;10.93;;;7.38;;
18999;SDS011;9633;50.980;13.850;2023-02-28T02:03:18;10.27;;;7.35;;
18999;SDS011;9633;50.980;13.850;2023-02-28T02:04:53;11.60;;;7.13;;
18999;SDS011;9633;50.980;13.850;2023-02-28T02:06:29;11.05;;;6.75;;
18999;SDS011;9633;50.980;13.850;2023-02-28T02:08:09;11.25;;;7.40;;
18999;SDS011;9633;50.980;13.850;2023-02-28T02:09:43;11.30;;;7.78;;
18999;SDS011;9633;50.980;13.850;2023-02-28T02:11:18;11.50;;;7.85;;
18999;SDS011;9633;50.980;13.850;2023-02-28T02:12:57;9.27;;;7.57;;
18999;SDS011;9633;50.980;13.850;2023-02-28T02:14:49;12.93;;;8.25;;
18999;SDS011;9633;50.980;13.850;2023-02-28T02:16:34;9.45;;;7.18;;
18999;SDS011;9633;50.980;13.850;2023-02-28T02:18:19;14.32;;;8.30;;
18999;SDS011;9633;50.980;13.850;2023-02-28T02:22:06;11.93;;;7.80;;
18999;SDS011;9633;50.980;13.850;2023-02-28T02:24:03;12.00;;;7.85;;
18999;SDS011;9633;50.980;13.850;2023-02-28T02:25:53;11.13;;;8.60;;
18999;SDS011;9633;50.980;13.850;2023-02-28T02:27:33;11.65;;;8.00;;
18999;SDS011;9633;50.980;13.850;2023-02-28T02:29:28;11.43;;;8.85;;
18999;SDS011;9633;50.980;13.850;2023-02-28T02:31:29;11.73;;;8.02;;
18999;SDS011;9633;50.980;13.850;2023-02-28T02:33:29;11.68;;;8.20;;
18999;SDS011;9633;50.980;13.850;2023-02-28T02:35:28;13.25;;;8.23;;
18999;SDS011;9633;50.980;13.850;2023-02-28T02:37:09;10.70;;;8.18;;
18999;SDS011;9633;50.980;13.850;2023-02-28T02:38:49;10.52;;;7.90;;
18999;SDS011;9633;50.980;13.850;2023-02-28T02:40:25;14.25;;;8.32;;
18999;SDS011;9633;50.980;13.850;2023-02-28T02:42:04;13.00;;;8.48;;
18999;SDS011;9633;50.980;13.850;2023-02-28T02:43:47;11.85;;;8.15;;
18999;SDS011;9633;50.980;13.850;2023-02-28T02:45:24;14.38;;;8.70;;
18999;SDS011;9633;50.980;13.850;2023-02-28T02:47:01;13.23;;;8.80;;
18999;SDS011;9633;50.980;13.850;2023-02-28T02:48:38;13.43;;;8.35;;
18999;SDS011;9633;50.980;13.850;2023-02-28T02:50:17;14.35;;;9.25;;
18999;SDS011;9633;50.980;13.850;2023-02-28T02:51:56;11.88;;;8.57;;
18999;SDS011;9633;50.980;13.850;2023-02-28T02:53:33;15.60;;;9.50;;
18999;SDS011;9633;50.980;13.850;2023-02-28T02:55:11;11.52;;;9.00;;
18999;SDS011;9633;50.980;13.850;2023-02-28T02:56:47;14.02;;;9.57;;
18999;SDS011;9633;50.980;13.850;2023-02-28T02:58:22;14.90;;;9.23;;
18999;SDS011;9633;50.980;13.850;2023-02-28T03:00:00;15.85;;;8.93;;
18999;SDS011;9633;50.980;13.850;2023-02-28T03:01:37;12.15;;;8.90;;
18999;SDS011;9633;50.980;13.850;2023-02-28T03:03:10;13.27;;;8.90;;
18999;SDS011;9633;50.980;13.850;2023-02-28T03:04:46;13.50;;;8.75;;
18999;SDS011;9633;50.980;13.850;2023-02-28T03:06:25;16.35;;;9.05;;
18999;SDS011;9633;50.980;13.850;2023-02-28T03:08:01;14.25;;;9.13;;
18999;SDS011;9633;50.980;13.850;2023-02-28T03:09:36;14.23;;;9.00;;
18999;SDS011;9633;50.980;13.850;2023-02-28T03:11:11;16.67;;;9.13;;
18999;SDS011;9633;50.980;13.850;2023-02-28T03:12:50;15.88;;;9.40;;
18999;SDS011;9633;50.980;13.850;2023-02-28T03:14:32;11.73;;;8.68;;
18999;SDS011;9633;50.980;13.850;2023-02-28T03:18:42;15.02;;;9.00;;
18999;SDS011;9633;50.980;13.850;2023-02-28T03:20:27;15.02;;;8.88;;
18999;SDS011;9633;50.980;13.850;2023-02-28T03:22:19;14.10;;;8.80;;
18999;SDS011;9633;50.980;13.850;2023-02-28T03:24:23;11.77;;;8.40;;
18999;SDS011;9633;50.980;13.850;2023-02-28T03:26:02;12.00;;;9.27;;
18999;SDS011;9633;50.980;13.850;2023-02-28T03:27:39;14.20;;;9.50;;
18999;SDS011;9633;50.980;13.850;2023-02-28T03:29:16;13.32;;;8.75;;
18999;SDS011;9633;50.980;13.850;2023-02-28T03:30:57;13.88;;;9.43;;
18999;SDS011;9633;50.980;13.850;2023-02-28T03:32:33;13.60;;;9.60;;
18999;SDS011;9633;50.980;13.850;2023-02-28T03:34:08;11.85;;;9.23;;
18999;SDS011;9633;50.980;13.850;2023-02-28T03:35:47;14.48;;;9.57;;
18999;SDS011;9633;50.980;13.850;2023-02-28T03:37:23;15.43;;;10.02;;
18999;SDS011;9633;50.980;13.850;2023-02-28T03:39:01;16.10;;;9.93;;
18999;SDS011;9633;50.980;13.850;2023-02-28T03:40:38;14.45;;;10.25;;
18999;SDS011;9633;50.980;13.850;2023-02-28T03:42:15;15.77;;;10.05;;
18999;SDS011;9633;50.980;13.850;2023-02-28T03:43:55;14.10;;;9.77;;
18999;SDS011;9633;50.980;13.850;2023-02-28T03:45:32;14.13;;;9.38;;
18999;SDS011;9633;50.980;13.850;2023-02-28T03:47:09;14.63;;;10.10;;
18999;SDS011;9633;50.980;13.850;2023-02-28T03:48:47;14.27;;;9.40;;
18999;SDS011;9633;50.980;13.850;2023-02-28T03:50:24;16.95;;;10.27;;
18999;SDS011;9633;50.980;13.850;2023-02-28T03:52:00;15.60;;;9.73;;
18999;SDS011;9633;50.980;13.850;2023-02-28T03:53:37;15.82;;;9.63;;
18999;SDS011;9633;50.980;13.850;2023-02-28T03:55:13;14.07;;;9.75;;
18999;SDS011;9633;50.980;13.850;2023-02-28T03:56:51;13.95;;;9.75;;
18999;SDS011;9633;50.980;13.850;2023-02-28T03:58:30;15.25;;;10.13;;
18999;SDS011;9633;50.980;13.850;2023-02-28T04:00:09;14.93;;;10.35;;
18999;SDS011;9633;50.980;13.850;2023-02-28T04:01:47;14.80;;;9.60;;
18999;SDS011;9633;50.980;13.850;2023-02-28T04:03:21;15.57;;;10.13;;
18999;SDS011;9633;50.980;13.850;2023-02-28T04:04:54;15.20;;;10.70;;
18999;SDS011;9633;50.980;13.850;2023-02-28T04:06:29;14.73;;;9.98;;
18999;SDS011;9633;50.980;13.850;2023-02-28T04:08:05;17.52;;;10.05;;
18999;SDS011;9633;50.980;13.850;2023-02-28T04:09:39;16.65;;;10.57;;
18999;SDS011;9633;50.980;13.850;2023-02-28T04:11:16;17.55;;;10.30;;
18999;SDS011;9633;50.980;13.850;2023-02-28T04:12:56;15.57;;;10.35;;
18999;SDS011;9633;50.980;13.850;2023-02-28T04:14:29;17.35;;;10.45;;
18999;SDS011;9633;50.980;13.850;2023-02-28T04:16:01;15.32;;;10.13;;
18999;SDS011;9633;50.980;13.850;2023-02-28T04:17:54;15.50;;;10.20;;
18999;SDS011;9633;50.980;13.850;2023-02-28T04:19:28;17.65;;;10.82;;
18999;SDS011;9633;50.980;13.850;2023-02-28T04:21:01;18.63;;;10.95;;
18999;SDS011;9633;50.980;13.850;2023-02-28T04:22:34;17.33;;;10.75;;
18999;SDS011;9633;50.980;13.850;2023-02-28T04:24:07;18.77;;;11.30;;
18999;SDS011;9633;50.980;13.850;2023-02-28T04:25:45;18.17;;;11.30;;
18999;SDS011;9633;50.980;13.850;2023-02-28T04:27:18;15.75;;;10.52;;
18999;SDS011;9633;50.980;13.850;2023-02-28T04:28:53;16.95;;;10.05;;
18999;SDS011;9633;50.980;13.850;2023-02-28T04:30:26;17.58;;;11.25;;
18999;SDS011;9633;50.980;13.850;2023-02-28T04:32:01;17.00;;;10.75;;
18999;SDS011;9633;50.980;13.850;2023-02-28T04:33:34;18.05;;;11.57;;
18999;SDS011;9633;50.980;13.850;2023-02-28T04:35:08;19.25;;;11.98;;
18999;SDS011;9633;50.980;13.850;2023-02-28T04:36:42;20.55;;;11.55;;
18999;SDS011;9633;50.980;13.850;2023-02-28T04:38:17;18.98;;;12.20;;
18999;SDS011;9633;50.980;13.850;2023-02-28T04:39:50;18.73;;;11.68;;
18999;SDS011;9633;50.980;13.850;2023-02-28T04:41:23;17.40;;;11.45;;
18999;SDS011;9633;50.980;13.850;2023-02-28T04:42:57;21.33;;;11.68;;
18999;SDS011;9633;50.980;13.850;2023-02-28T04:44:32;19.10;;;12.00;;
18999;SDS011;9633;50.980;13.850;2023-02-28T04:46:05;21.33;;;11.75;;
18999;SDS011;9633;50.980;13.850;2023-02-28T04:47:39;20.02;;;11.20;;
18999;SDS011;9633;50.980;13.850;2023-02-28T04:49:12;20.38;;;11.95;;
18999;SDS011;9633;50.980;13.850;2023-02-28T04:50:46;21.58;;;12.18;;
18999;SDS011;9633;50.980;13.850;2023-02-28T04:52:20;18.55;;;11.05;;
18999;SDS011;9633;50.980;13.850;2023-02-28T04:53:53;18.98;;;11.88;;
18999;SDS011;9633;50.980;13.850;2023-02-28T04:55:26;17.73;;;11.20;;
18999;SDS011;9633;50.980;13.850;2023-02-28T04:57:02;20.90;;;11.57;;
18999;SDS011;9633;50.980;13.850;2023-02-28T04:58:35;17.40;;;11.25;;
18999;SDS011;9633;50.980;13.850;2023-02-28T05:00:11;21.42;;;11.82;;
18999;SDS011;9633;50.980;13.850;2023-02-28T05:01:48;19.27;;;12.05;;
18999;SDS011;9633;50.980;13.850;2023-02-28T05:03:20;17.58;;;11.60;;
18999;SDS011;9633;50.980;13.850;2023-02-28T05:04:54;21.65;;;12.80;;
18999;SDS011;9633;50.980;13.850;2023-02-28T05:06:28;19.10;;;11.55;;
18999;SDS011;9633;50.980;13.850;2023-02-28T05:08:01;17.17;;;11.45;;
18999;SDS011;9633;50.980;13.850;2023-02-28T05:09:36;20.67;;;13.15;;
18999;SDS011;9633;50.980;13.850;2023-02-28T05:11:12;19.13;;;12.70;;
18999;SDS011;9633;50.980;13.850;2023-02-28T05:12:46;21.35;;;12.40;;
18999;SDS011;9633;50.980;13.850;2023-02-28T05:14:20;20.63;;;13.00;;
18999;SDS011;9633;50.980;13.850;2023-02-28T05:15:55;21.60;;;12.93;;
18999;SDS011;9633;50.980;13.850;2023-02-28T05:17:29;23.77;;;13.13;;
18999;SDS011;9633;50.980;13.850;2023-02-28T05:19:02;19.83;;;12.05;;
18999;SDS011;9633;50.980;13.850;2023-02-28T05:20:36;21.50;;;12.75;;
18999;SDS011;9633;50.980;13.850;2023-02-28T05:22:13;21.88;;;13.05;;
18999;SDS011;9633;50.980;13.850;2023-02-28T05:23:47;18.50;;;11.98;;
18999;SDS011;9633;50.980;13.850;2023-02-28T05:25:21;19.80;;;12.07;;
18999;SDS011;9633;50.980;13.850;2023-02-28T05:26:55;20.63;;;12.30;;
18999;SDS011;9633;50.980;13.850;2023-02-28T05:28:29;19.00;;;11.70;;
18999;SDS011;9633;50.980;13.850;2023-02-28T05:30:02;19.75;;;11.68;;
18999;SDS011;9633;50.980;13.850;2023-02-28T05:31:38;18.70;;;12.20;;
18999;SDS011;9633;50.980;13.850;2023-02-28T05:33:13;19.58;;;11.65;;
18999;SDS011;9633;50.980;13.850;2023-02-28T05:34:46;18.83;;;12.25;;
18999;SDS011;9633;50.980;13.850;2023-02-28T05:36:20;19.70;;;12.68;;
18999;SDS011;9633;50.980;13.850;2023-02-28T05:37:53;23.40;;;12.80;;
18999;SDS011;9633;50.980;13.850;2023-02-28T05:39:27;20.60;;;12.45;;
18999;SDS011;9633;50.980;13.850;2023-02-28T05:41:04;18.25;;;12.20;;
18999;SDS011;9633;50.980;13.850;2023-02-28T05:42:38;20.38;;;12.75;;
18999;SDS011;9633;50.980;13.850;2023-02-28T05:44:11;18.70;;;12.40;;
18999;SDS011;9633;50.980;13.850;2023-02-28T05:45:45;20.95;;;12.55;;
18999;SDS011;9633;50.980;13.850;2023-02-28T05:47:20;22.33;;;12.90;;
18999;SDS011;9633;50.980;13.850;2023-02-28T05:48:55;22.65;;;12.38;;
18999;SDS011;9633;50.980;13.850;2023-02-28T05:50:31;21.48;;;13.48;;
18999;SDS011;9633;50.980;13.850;2023-02-28T05:52:05;20.67;;;12.80;;
18999;SDS011;9633;50.980;13.850;2023-02-28T05:53:38;18.52;;;11.93;;
18999;SDS011;9633;50.980;13.850;2023-02-28T05:55:13;23.27;;;13.95;;
18999;SDS011;9633;50.980;13.850;2023-02-28T05:56:47;23.88;;;13.13;;
18999;SDS011;9633;50.980;13.850;2023-02-28T05:58:21;21.80;;;12.88;;
18999;SDS011;9633;50.980;13.850;2023-02-28T05:59:56;22.15;;;13.43;;
18999;SDS011;9633;50.980;13.850;2023-02-28T06:01:33;24.48;;;14.23;;
18999;SDS011;9633;50.980;13.850;2023-02-28T06:03:09;22.80;;;13.25;;
18999;SDS011;9633;50.980;13.850;2023-02-28T06:04:42;19.77;;;12.30;;
18999;SDS011;9633;50.980;13.850;2023-02-28T06:06:16;18.75;;;12.52;;
18999;SDS011;9633;50.980;13.850;2023-02-28T06:07:48;21.48;;;12.15;;
18999;SDS011;9633;50.980;13.850;2023-02-28T06:09:21;21.58;;;13.77;;
18999;SDS011;9633;50.980;13.850;2023-02-28T06:10:55;23.08;;;13.27;;
18999;SDS011;9633;50.980;13.850;2023-02-28T06:12:28;20.90;;;13.80;;
18999;SDS011;9633;50.980;13.850;2023-02-28T06:14:01;22.23;;;13.35;;
18999;SDS011;9633;50.980;13.850;2023-02-28T06:15:35;18.77;;;11.52;;
18999;SDS011;9633;50.980;13.850;2023-02-28T06:17:08;19.60;;;13.05;;
18999;SDS011;9633;50.980;13.850;2023-02-28T06:18:43;18.58;;;11.70;;
18999;SDS011;9633;50.980;13.850;2023-02-28T06:20:16;20.33;;;12.20;;
18999;SDS011;9633;50.980;13.850;2023-02-28T06:21:49;23.00;;;12.30;;
18999;SDS011;9633;50.980;13.850;2023-02-28T06:23:23;16.05;;;11.27;;
18999;SDS011;9633;50.980;13.850;2023-02-28T06:24:57;19.73;;;12.13;;
18999;SDS011;9633;50.980;13.850;2023-02-28T06:26:30;20.48;;;13.32;;
18999;SDS011;9633;50.980;13.850;2023-02-28T06:28:04;19.45;;;12.65;;
18999;SDS011;9633;50.980;13.850;2023-02-28T06:29:37;19.85;;;11.70;;
18999;SDS011;9633;50.980;13.850;2023-02-28T06:31:11;19.35;;;11.15;;
18999;SDS011;9633;50.980;13.850;2023-02-28T06:32:46;14.43;;;9.55;;
18999;SDS011;9633;50.980;13.850;2023-02-28T06:34:22;15.98;;;10.05;;
18999;SDS011;9633;50.980;13.850;2023-02-28T06:35:55;14.27;;;9.35;;
18999;SDS011;9633;50.980;13.850;2023-02-28T06:37:28;14.88;;;9.10;;
18999;SDS011;9633;50.980;13.850;2023-02-28T06:39:03;12.25;;;8.40;;
18999;SDS011;9633;50.980;13.850;2023-02-28T06:40:36;11.25;;;8.35;;
18999;SDS011;9633;50.980;13.850;2023-02-28T06:42:08;10.68;;;7.97;;
18999;SDS011;9633;50.980;13.850;2023-02-28T06:43:41;15.32;;;8.90;;
18999;SDS011;9633;50.980;13.850;2023-02-28T06:45:15;11.80;;;8.85;;
18999;SDS011;9633;50.980;13.850;2023-02-28T06:46:48;13.05;;;8.82;;
18999;SDS011;9633;50.980;13.850;2023-02-28T06:48:22;15.50;;;8.65;;
18999;SDS011;9633;50.980;13.850;2023-02-28T06:49:57;14.88;;;9.07;;
18999;SDS011;9633;50.980;13.850;2023-02-28T06:51:32;12.63;;;9.13;;
18999;SDS011;9633;50.980;13.850;2023-02-28T06:53:05;12.82;;;9.30;;
18999;SDS011;9633;50.980;13.850;2023-02-28T06:54:38;15.60;;;9.60;;
18999;SDS011;9633;50.980;13.850;2023-02-28T06:56:13;12.40;;;8.93;;
18999;SDS011;9633;50.980;13.850;2023-02-28T06:57:47;18.38;;;11.02;;
18999;SDS011;9633;50.980;13.850;2023-02-28T06:59:21;21.70;;;11.97;;
18999;SDS011;9633;50.980;13.850;2023-02-28T07:00:54;19.40;;;11.07;;
18999;SDS011;9633;50.980;13.850;2023-02-28T07:02:28;13.98;;;9.75;;
18999;SDS011;9633;50.980;13.850;2023-02-28T07:04:01;13.98;;;9.13;;
18999;SDS011;9633;50.980;13.850;2023-02-28T07:05:36;13.57;;;8.88;;
18999;SDS011;9633;50.980;13.850;2023-02-28T07:07:10;12.20;;;8.70;;
18999;SDS011;9633;50.980;13.850;2023-02-28T07:08:43;13.03;;;8.73;;
18999;SDS011;9633;50.980;13.850;2023-02-28T07:10:16;12.40;;;8.63;;
18999;SDS011;9633;50.980;13.850;2023-02-28T07:11:50;13.00;;;8.77;;
18999;SDS011;9633;50.980;13.850;2023-02-28T07:13:24;11.77;;;8.43;;
18999;SDS011;9633;50.980;13.850;2023-02-28T07:14:57;12.57;;;8.83;;
18999;SDS011;9633;50.980;13.850;2023-02-28T07:16:30;11.60;;;9.07;;
18999;SDS011;9633;50.980;13.850;2023-02-28T07:18:03;13.43;;;8.77;;
18999;SDS011;9633;50.980;13.850;2023-02-28T07:19:36;11.63;;;8.90;;
18999;SDS011;9633;50.980;13.850;2023-02-28T07:21:11;13.07;;;9.73;;
18999;SDS011;9633;50.980;13.850;2023-02-28T07:22:44;14.53;;;10.60;;
18999;SDS011;9633;50.980;13.850;2023-02-28T07:24:26;17.00;;;9.67;;
18999;SDS011;9633;50.980;13.850;2023-02-28T07:26:00;16.17;;;10.47;;
18999;SDS011;9633;50.980;13.850;2023-02-28T07:27:33;15.23;;;9.97;;
18999;SDS011;9633;50.980;13.850;2023-02-28T07:29:07;14.10;;;10.67;;
18999;SDS011;9633;50.980;13.850;2023-02-28T07:30:40;14.20;;;10.10;;
18999;SDS011;9633;50.980;13.850;2023-02-28T07:32:13;13.70;;;9.70;;
18999;SDS011;9633;50.980;13.850;2023-02-28T07:33:46;14.90;;;10.33;;
18999;SDS011;9633;50.980;13.850;2023-02-28T07:35:20;16.47;;;10.37;;
18999;SDS011;9633;50.980;13.850;2023-02-28T07:36:54;16.30;;;11.13;;
18999;SDS011;9633;50.980;13.850;2023-02-28T07:38:27;14.87;;;10.30;;
18999;SDS011;9633;50.980;13.850;2023-02-28T07:40:00;16.20;;;10.40;;
18999;SDS011;9633;50.980;13.850;2023-02-28T07:41:35;16.60;;;10.83;;
18999;SDS011;9633;50.980;13.850;2023-02-28T07:43:14;15.00;;;10.33;;
18999;SDS011;9633;50.980;13.850;2023-02-28T07:44:47;16.60;;;10.53;;
18999;SDS011;9633;50.980;13.850;2023-02-28T07:46:22;13.30;;;10.10;;
18999;SDS011;9633;50.980;13.850;2023-02-28T07:47:56;17.67;;;10.47;;
18999;SDS011;9633;50.980;13.850;2023-02-28T07:49:29;14.10;;;10.13;;
18999;SDS011;9633;50.980;13.850;2023-02-28T07:51:03;14.80;;;9.97;;
18999;SDS011;9633;50.980;13.850;2023-02-28T07:52:38;14.37;;;10.00;;
18999;SDS011;9633;50.980;13.850;2023-02-28T07:54:12;14.77;;;9.47;;
18999;SDS011;9633;50.980;13.850;2023-02-28T07:55:45;13.67;;;9.10;;
18999;SDS011;9633;50.980;13.850;2023-02-28T07:57:19;14.60;;;10.10;;
18999;SDS011;9633;50.980;13.850;2023-02-28T07:58:52;14.83;;;9.87;;
18999;SDS011;9633;50.980;13.850;2023-02-28T08:00:25;15.43;;;10.37;;
18999;SDS011;9633;50.980;13.850;2023-02-28T08:01:58;14.60;;;9.30;;
18999;SDS011;9633;50.980;13.850;2023-02-28T08:03:32;12.90;;;10.03;;
18999;SDS011;9633;50.980;13.850;2023-02-28T08:05:06;13.93;;;9.80;;
18999;SDS011;9633;50.980;13.850;2023-02-28T08:06:39;12.70;;;8.43;;
18999;SDS011;9633;50.980;13.850;2023-02-28T08:08:14;14.27;;;9.50;;
18999;SDS011;9633;50.980;13.850;2023-02-28T08:09:48;15.97;;;9.27;;
18999;SDS011;9633;50.980;13.850;2023-02-28T08:11:21;15.93;;;9.47;;
18999;SDS011;9633;50.980;13.850;2023-02-28T08:12:54;74.00;;;14.03;;
18999;SDS011;9633;50.980;13.850;2023-02-28T08:14:27;17.23;;;9.87;;
18999;SDS011;9633;50.980;13.850;2023-02-28T08:16:01;15.57;;;9.97;;
18999;SDS011;9633;50.980;13.850;2023-02-28T08:17:34;12.73;;;9.37;;
18999;SDS011;9633;50.980;13.850;2023-02-28T08:19:07;15.03;;;10.03;;
18999;SDS011;9633;50.980;13.850;2023-02-28T08:20:41;11.47;;;9.50;;
18999;SDS011;9633;50.980;13.850;2023-02-28T08:22:14;14.57;;;10.50;;
18999;SDS011;9633;50.980;13.850;2023-02-28T08:23:49;16.37;;;9.87;;
18999;SDS011;9633;50.980;13.850;2023-02-28T08:25:23;16.63;;;10.23;;
18999;SDS011;9633;50.980;13.850;2023-02-28T08:26:56;13.07;;;9.47;;
18999;SDS011;9633;50.980;13.850;2023-02-28T08:28:30;12.70;;;9.53;;
18999;SDS011;9633;50.980;13.850;2023-02-28T08:30:04;14.80;;;10.03;;
18999;SDS011;9633;50.980;13.850;2023-02-28T08:31:37;14.93;;;9.70;;
18999;SDS011;9633;50.980;13.850;2023-02-28T08:33:11;13.13;;;9.23;;
18999;SDS011;9633;50.980;13.850;2023-02-28T08:34:44;11.20;;;8.80;;
18999;SDS011;9633;50.980;13.850;2023-02-28T08:36:18;12.83;;;9.00;;
18999;SDS011;9633;50.980;13.850;2023-02-28T08:37:52;15.17;;;9.90;;
18999;SDS011;9633;50.980;13.850;2023-02-28T08:39:27;14.73;;;9.90;;
18999;SDS011;9633;50.980;13.850;2023-02-28T08:41:01;13.70;;;10.00;;
18999;SDS011;9633;50.980;13.850;2023-02-28T08:42:37;12.73;;;9.43;;
18999;SDS011;9633;50.980;13.850;2023-02-28T08:44:10;14.73;;;10.20;;
18999;SDS011;9633;50.980;13.850;2023-02-28T08:45:43;15.50;;;10.10;;
18999;SDS011;9633;50.980;13.850;2023-02-28T08:47:16;13.67;;;9.50;;
18999;SDS011;9633;50.980;13.850;2023-02-28T08:48:51;14.37;;;9.77;;
18999;SDS011;9633;50.980;13.850;2023-02-28T08:50:25;14.07;;;10.03;;
18999;SDS011;9633;50.980;13.850;2023-02-28T08:51:58;16.00;;;10.37;;
18999;SDS011;9633;50.980;13.850;2023-02-28T08:53:31;13.17;;;9.93;;
18999;SDS011;9633;50.980;13.850;2023-02-28T08:55:06;12.50;;;9.60;;
18999;SDS011;9633;50.980;13.850;2023-02-28T08:56:40;14.43;;;10.10;;
18999;SDS011;9633;50.980;13.850;2023-02-28T08:58:13;12.83;;;10.00;;
18999;SDS011;9633;50.980;13.850;2023-02-28T08:59:47;13.80;;;9.33;;
18999;SDS011;9633;50.980;13.850;2023-02-28T09:01:21;13.13;;;9.83;;
18999;SDS011;9633;50.980;13.850;2023-02-28T09:02:55;15.33;;;10.40;;
18999;SDS011;9633;50.980;13.850;2023-02-28T09:04:28;17.47;;;11.80;;
18999;SDS011;9633;50.980;13.850;2023-02-28T09:06:02;15.47;;;11.13;;
18999;SDS011;9633;50.980;13.850;2023-02-28T09:07:36;15.53;;;10.77;;
18999;SDS011;9633;50.980;13.850;2023-02-28T09:09:09;12.77;;;9.80;;
18999;SDS011;9633;50.980;13.850;2023-02-28T09:10:44;11.70;;;9.53;;
18999;SDS011;9633;50.980;13.850;2023-02-28T09:12:17;14.33;;;10.37;;
18999;SDS011;9633;50.980;13.850;2023-02-28T09:13:50;16.77;;;10.33;;
18999;SDS011;9633;50.980;13.850;2023-02-28T09:15:24;12.40;;;9.53;;
18999;SDS011;9633;50.980;13.850;2023-02-28T09:16:58;12.47;;;9.40;;
18999;SDS011;9633;50.980;13.850;2023-02-28T09:18:33;14.53;;;9.70;;
18999;SDS011;9633;50.980;13.850;2023-02-28T09:20:07;11.87;;;9.60;;
18999;SDS011;9633;50.980;13.850;2023-02-28T09:21:42;11.77;;;9.50;;
18999;SDS011;9633;50.980;13.850;2023-02-28T09:23:16;14.30;;;9.77;;
18999;SDS011;9633;50.980;13.850;2023-02-28T09:24:51;12.53;;;9.80;;
18999;SDS011;9633;50.980;13.850;2023-02-28T09:26:27;12.93;;;10.17;;
18999;SDS011;9633;50.980;13.850;2023-02-28T09:28:13;14.80;;;9.43;;